Time;durP1;ratioP1;P1;durP2;ratioP2;P2;SDS_P1;SDS_P2;PMS_P1;PMS_P2;Temp;Humidity;BMP_temperature;BMP_pressure;BME280_temperature;BME280_humidity;BME280_pressure;Samples;Min_cycle;Max_cycle;Signal;HPM_P1;HPM_P2
2022/01/31 00:00:14;;;;;;;12.90;2.50;;;;;;;1.49;69.72;97882.79;106116;1276;137630;-75
2022/01/31 00:03:02;;;;;;;7.70;1.30;;;;;;;1.46;66.31;97881.37;106204;1276;25475;-75
2022/01/31 00:05:29;;;;;;;11.30;1.60;;;;;;;1.46;65.01;97884.80;106099;1276;137675;-76
2022/01/31 00:07:56;;;;;;;11.00;1.70;;;;;;;1.47;66.23;97883.67;106144;1276;25336;-75
2022/01/31 00:10:29;;;;;;;10.50;1.80;;;;;;;1.45;64.57;97874.40;106024;1277;25352;-75
2022/01/31 00:13:13;;;;;;;9.30;1.70;;;;;;;1.45;64.87;97878.06;105982;1277;137222;-76
2022/01/31 00:15:46;;;;;;;10.50;1.70;;;;;;;1.44;65.29;97876.20;106200;1277;22566;-75
2022/01/31 00:18:13;;;;;;;9.80;1.70;;;;;;;1.43;64.55;97878.80;106272;1277;137332;-76
2022/01/31 00:20:40;;;;;;;14.50;2.20;;;;;;;1.43;65.66;97883.13;106309;1275;24223;-76
2022/01/31 00:23:07;;;;;;;11.90;1.80;;;;;;;1.39;66.80;97892.52;106073;1276;137672;-76
2022/01/31 00:25:34;;;;;;;8.70;2.10;;;;;;;1.37;66.51;97881.46;106200;1276;22550;-76
2022/01/31 00:28:01;;;;;;;14.80;2.40;;;;;;;1.35;66.49;97890.65;106208;1276;23297;-76
2022/01/31 00:30:29;;;;;;;15.50;2.80;;;;;;;1.32;67.78;97888.95;106290;1277;137167;-76
2022/01/31 00:32:56;;;;;;;14.10;2.70;;;;;;;1.30;69.03;97892.09;106159;1276;22554;-77
2022/01/31 00:35:25;;;;;;;14.80;3.50;;;;;;;1.30;70.01;97885.19;105997;1277;138431;-76
2022/01/31 00:37:53;;;;;;;18.20;4.30;;;;;;;1.30;70.71;97890.17;106143;1277;22546;-76
2022/01/31 00:40:20;;;;;;;18.60;3.40;;;;;;;1.31;71.23;97897.70;106300;1276;25302;-76
2022/01/31 00:42:48;;;;;;;18.30;3.70;;;;;;;1.31;71.95;97891.48;106122;1276;137301;-76
2022/01/31 00:47:58;;;;;;;21.80;4.30;;;;;;;1.28;73.12;97880.02;106094;1276;137560;-76
2022/01/31 00:50:27;;;;;;;25.10;4.10;;;;;;;1.22;74.07;97882.73;106127;1276;22693;-76
2022/01/31 00:52:55;;;;;;;18.80;3.90;;;;;;;1.17;75.11;97883.39;106172;1276;138242;-76
2022/01/31 00:55:23;;;;;;;19.70;3.30;;;;;;;1.12;76.21;97884.27;106323;1277;22630;-76
2022/01/31 00:57:50;;;;;;;14.90;4.30;;;;;;;1.04;77.78;97890.18;106163;1277;22794;-76
2022/01/31 01:00:17;;;;;;;13.90;2.60;;;;;;;0.91;79.27;97879.55;106081;1277;137339;-78
2022/01/31 01:02:48;;;;;;;15.90;2.70;;;;;;;0.78;79.51;97887.59;106011;1276;22550;-75
2022/01/31 01:05:16;;;;;;;18.50;3.60;;;;;;;0.66;80.35;97889.10;106116;1276;138547;-76
2022/01/31 01:07:57;;;;;;;10.90;2.70;;;;;;;0.59;80.72;97891.80;105989;1276;24296;-76
2022/01/31 01:10:24;;;;;;;11.60;2.50;;;;;;;0.54;81.28;97887.55;106188;1276;24279;-76
2022/01/31 01:12:51;;;;;;;14.60;4.00;;;;;;;0.50;81.47;97888.35;106035;1276;137430;-77
2022/01/31 01:15:18;;;;;;;10.10;3.00;;;;;;;0.46;81.54;97884.94;106122;1276;25394;-76
2022/01/31 01:17:46;;;;;;;23.70;4.10;;;;;;;0.44;81.58;97884.50;105925;1276;137308;-76
2022/01/31 01:20:15;;;;;;;18.60;3.40;;;;;;;0.42;81.96;97876.00;106292;1276;22644;-76
2022/01/31 01:22:44;;;;;;;20.70;3.80;;;;;;;0.41;81.64;97877.36;106222;1276;22548;-76
2022/01/31 01:25:13;;;;;;;20.00;3.20;;;;;;;0.42;81.23;97872.45;106159;1276;137234;-76
2022/01/31 01:27:42;;;;;;;17.00;3.50;;;;;;;0.43;80.97;97866.29;106271;1276;24271;-78
2022/01/31 01:30:11;;;;;;;12.20;3.00;;;;;;;0.44;80.28;97861.30;106013;1276;137398;-79
2022/01/31 01:32:59;;;;;;;11.50;3.10;;;;;;;0.47;79.38;97857.73;106578;1276;22554;-76
2022/01/31 01:35:32;;;;;;;18.90;3.50;;;;;;;0.50;78.76;97840.66;105991;1277;138150;-76
2022/01/31 01:38:06;;;;;;;8.10;2.20;;;;;;;0.55;77.83;97839.88;106269;1277;22597;-76
2022/01/31 01:40:39;;;;;;;11.50;2.90;;;;;;;0.60;76.60;97833.19;106251;1277;24321;-76
2022/01/31 01:43:08;;;;;;;14.80;3.20;;;;;;;0.64;76.46;97835.27;106193;1276;137159;-76
2022/01/31 01:45:36;;;;;;;14.70;3.10;;;;;;;0.65;76.15;97827.19;106485;1276;23288;-76
2022/01/31 01:48:06;;;;;;;12.10;2.30;;;;;;;0.69;75.67;97828.70;106240;1276;138037;-76
2022/01/31 01:50:39;;;;;;;15.90;3.30;;;;;;;0.70;75.61;97830.80;106198;1276;23415;-76
2022/01/31 01:53:07;;;;;;;14.80;3.00;;;;;;;0.74;74.90;97840.73;106070;1277;137352;-76
2022/01/31 01:55:35;;;;;;;13.50;2.90;;;;;;;0.77;75.10;97846.63;106383;1277;24409;-76
2022/01/31 01:58:05;;;;;;;15.00;2.50;;;;;;;0.76;74.51;97843.45;106335;1277;24260;-76
2022/01/31 02:00:49;;;;;;;;;;;;;;;0.75;74.58;97847.73;105911;1277;138154;-76
2022/01/31 02:03:21;;;;;;;12.40;2.60;;;;;;;0.73;74.75;97841.42;106129;1276;22588;-78
2022/01/31 02:05:48;;;;;;;15.00;2.70;;;;;;;0.71;74.77;97839.27;105879;1278;138398;-76
2022/01/31 02:08:17;;;;;;;8.80;1.70;;;;;;;0.70;74.78;97837.79;106028;1276;22703;-76
2022/01/31 02:10:46;;;;;;;12.20;2.80;;;;;;;0.68;74.91;97830.89;106041;1276;22600;-76
2022/01/31 02:13:19;;;;;;;12.30;2.80;;;;;;;0.66;74.84;97828.19;105963;1276;137105;-76
2022/01/31 02:16:06;;;;;;;14.90;2.40;;;;;;;0.62;74.72;97820.16;105939;1277;23751;-76
2022/01/31 02:18:54;;;;;;;14.60;2.20;;;;;;;0.59;74.32;97828.55;106055;1277;137262;-76
2022/01/31 02:21:43;;;;;;;15.40;2.90;;;;;;;0.60;73.74;97826.09;105881;1277;22579;-76
2022/01/31 02:24:31;;;;;;;16.20;1.90;;;;;;;0.63;73.88;97821.77;105917;1276;137719;-76
2022/01/31 02:27:27;;;;;;;14.30;2.70;;;;;;;0.65;73.44;97819.70;106009;1276;25316;-76
2022/01/31 02:29:54;;;;;;;16.10;2.80;;;;;;;0.67;73.21;97808.45;105936;1277;137256;-76
2022/01/31 02:32:25;;;;;;;16.10;2.80;;;;;;;0.68;72.97;97802.23;106076;1276;22580;-76
2022/01/31 02:34:57;;;;;;;13.30;3.30;;;;;;;0.68;72.90;97804.38;105917;1277;137944;-76
2022/01/31 02:37:24;;;;;;;13.20;2.60;;;;;;;0.67;72.69;97799.48;106044;1277;22584;-76
2022/01/31 02:39:55;;;;;;;15.10;3.00;;;;;;;0.67;72.34;97794.92;106079;1277;22727;-76
2022/01/31 02:42:39;;;;;;;13.50;2.70;;;;;;;0.65;72.72;97783.41;105918;1277;138094;-76
2022/01/31 02:45:07;;;;;;;8.60;2.10;;;;;;;0.70;72.49;97786.41;106078;1276;22729;-77
2022/01/31 02:47:39;;;;;;;16.80;2.80;;;;;;;0.70;72.12;97780.11;105834;1276;137272;-78
2022/01/31 02:50:12;;;;;;;15.10;2.60;;;;;;;0.70;71.88;97780.23;106141;1276;22548;-77
2022/01/31 02:52:46;;;;;;;14.10;2.70;;;;;;;0.70;71.79;97779.98;105738;1276;305697;-76
2022/01/31 02:55:15;;;;;;;11.10;1.70;;;;;;;0.68;71.81;97780.42;105835;1276;139235;-75
2022/01/31 02:57:44;;;;;;;16.90;2.80;;;;;;;0.66;71.75;97776.04;105953;1278;25478;-75
2022/01/31 03:00:26;;;;;;;16.20;2.50;;;;;;;0.64;71.46;97777.72;105957;1276;137616;-76
2022/01/31 03:03:05;;;;;;;11.70;2.50;;;;;;;0.64;71.43;97778.79;105860;1276;22575;-75
2022/01/31 03:05:34;;;;;;;8.60;2.30;;;;;;;0.64;70.88;97774.10;105953;1277;137466;-76
2022/01/31 03:08:03;;;;;;;15.20;2.50;;;;;;;0.62;70.57;97778.95;106167;1277;25356;-75
2022/01/31 03:10:30;;;;;;;14.40;3.40;;;;;;;0.61;70.93;97770.66;105996;1277;22554;-75
2022/01/31 03:12:57;;;;;;;12.60;2.30;;;;;;;0.57;70.62;97772.81;106026;1276;137417;-75
2022/01/31 03:15:25;;;;;;;9.80;1.80;;;;;;;0.53;70.69;97767.52;106173;1276;25248;-76
2022/01/31 03:18:11;;;;;;;18.10;2.60;;;;;;;0.48;70.91;97773.15;105913;1276;138009;-76
2022/01/31 03:20:52;;;;;;;13.00;2.20;;;;;;;0.43;70.91;97774.88;105981;1276;24405;-76
2022/01/31 03:23:19;;;;;;;15.20;2.80;;;;;;;0.39;70.78;97771.45;105966;1277;137480;-76
2022/01/31 03:25:46;;;;;;;17.20;3.10;;;;;;;0.37;70.71;97768.59;106091;1276;22621;-76
2022/01/31 03:28:17;;;;;;;9.90;2.50;;;;;;;0.38;70.72;97768.52;106154;1276;22777;-76
2022/01/31 03:30:44;;;;;;;10.70;2.30;;;;;;;0.39;70.78;97763.73;105695;1276;137117;-76
2022/01/31 03:33:11;;;;;;;14.30;2.20;;;;;;;0.41;70.71;97761.77;105757;1278;25349;-76
2022/01/31 03:35:39;;;;;;;15.40;2.90;;;;;;;0.41;70.92;97762.13;105656;1277;137583;-76
2022/01/31 03:38:06;;;;;;;11.90;2.00;;;;;;;0.40;70.64;97761.80;106187;1277;22562;-76
2022/01/31 03:40:33;;;;;;;16.90;2.30;;;;;;;0.40;70.42;97757.64;106012;1277;22713;-75
2022/01/31 03:43:00;;;;;;;14.70;2.40;;;;;;;0.39;70.32;97761.02;106050;1277;137285;-75
2022/01/31 03:45:32;;;;;;;14.40;2.10;;;;;;;0.36;70.48;97762.08;106017;1276;22560;-76
2022/01/31 03:48:10;;;;;;;11.40;2.00;;;;;;;0.35;70.71;97760.10;105907;1276;137781;-76
2022/01/31 03:50:38;;;;;;;16.20;2.50;;;;;;;0.34;70.63;97760.83;106268;1276;25366;-76
2022/01/31 03:53:05;;;;;;;9.90;1.60;;;;;;;0.34;70.78;97752.77;105985;1276;138242;-76
2022/01/31 03:55:32;;;;;;;11.70;2.10;;;;;;;0.36;70.68;97757.00;105891;1277;23527;-76
2022/01/31 03:57:59;;;;;;;13.30;2.70;;;;;;;0.37;70.48;97755.35;106149;1277;25355;-76
2022/01/31 04:00:45;;;;;;;16.40;2.80;;;;;;;0.39;70.52;97758.73;106127;1276;137342;-76
2022/01/31 04:03:12;;;;;;;13.40;2.80;;;;;;;0.39;70.58;97752.49;106246;1277;22711;-76
2022/01/31 04:05:39;;;;;;;11.50;1.60;;;;;;;0.39;70.65;97741.94;106055;1276;137385;-76
2022/01/31 04:08:20;;;;;;;12.90;2.70;;;;;;;0.37;70.43;97737.85;106023;1276;25422;-76
2022/01/31 04:10:47;;;;;;;15.80;3.00;;;;;;;0.36;70.60;97734.27;106085;1276;22598;-76
2022/01/31 04:13:16;;;;;;;14.10;2.60;;;;;;;0.33;70.64;97735.85;106131;1276;137236;-76
2022/01/31 04:15:43;;;;;;;12.20;1.90;;;;;;;0.32;70.65;97730.77;106238;1276;23920;-76
2022/01/31 04:18:11;;;;;;;11.70;2.20;;;;;;;0.29;70.35;97725.00;106156;1276;138068;-76
2022/01/31 04:20:38;;;;;;;9.30;1.70;;;;;;;0.31;70.31;97725.62;106331;1277;25536;-76
2022/01/31 04:23:11;;;;;;;9.30;1.80;;;;;;;0.32;70.81;97718.16;106332;1277;137701;-76
2022/01/31 04:25:46;;;;;;;12.60;2.40;;;;;;;0.33;70.24;97710.27;106267;1276;22569;-76
2022/01/31 04:28:32;;;;;;;11.30;2.00;;;;;;;0.33;70.46;97716.65;106340;1276;25363;-76
2022/01/31 04:31:12;;;;;;;16.90;2.60;;;;;;;0.32;70.62;97716.02;105978;1276;137976;-75
2022/01/31 04:33:39;;;;;;;;;;;;;;;0.30;70.56;97722.98;106495;1276;25576;-76
2022/01/31 04:36:06;;;;;;;10.40;2.10;;;;;;;0.27;70.22;97717.11;106013;1276;123654;-76
2022/01/31 04:38:33;;;;;;;9.80;1.90;;;;;;;0.23;70.36;97714.38;106038;1276;22560;-76
2022/01/31 04:41:00;;;;;;;16.50;2.60;;;;;;;0.22;70.38;97724.88;106147;1277;137641;-76
2022/01/31 04:43:27;;;;;;;13.50;2.10;;;;;;;0.23;70.77;97725.13;106089;1275;22586;-75
2022/01/31 04:45:56;;;;;;;12.00;2.20;;;;;;;0.25;70.56;97724.31;106304;1276;22712;-75
2022/01/31 04:48:23;;;;;;;11.20;2.40;;;;;;;0.27;71.01;97726.02;106223;1276;137413;-75
2022/01/31 04:50:50;;;;;;;12.30;2.00;;;;;;;0.28;70.89;97717.52;106274;1276;22718;-75
2022/01/31 04:53:17;;;;;;;17.00;2.60;;;;;;;0.28;71.15;97715.59;106057;1276;161753;-75
2022/01/31 04:55:44;;;;;;;12.50;2.00;;;;;;;0.26;71.33;97717.32;106475;1277;22562;-76
2022/01/31 04:58:25;;;;;;;10.80;2.00;;;;;;;0.23;71.44;97712.36;106058;1277;22568;-75
2022/01/31 05:01:07;;;;;;;9.30;1.70;;;;;;;0.22;71.02;97711.11;106094;1277;137279;-75
2022/01/31 05:03:34;;;;;;;17.10;3.20;;;;;;;0.20;71.33;97703.36;106340;1276;22713;-75
2022/01/31 05:06:19;;;;;;;17.40;2.50;;;;;;;0.18;71.74;97701.42;106128;1276;137695;-76
2022/01/31 05:08:45;;;;;;;16.10;2.50;;;;;;;0.18;71.78;97701.66;106188;1276;22577;-75
2022/01/31 05:11:13;;;;;;;17.30;2.60;;;;;;;0.20;71.52;97694.26;106042;1276;137853;-76
2022/01/31 05:13:40;;;;;;;9.60;2.30;;;;;;;0.24;71.79;97692.18;106056;1276;23205;-76
2022/01/31 05:16:22;;;;;;;14.30;2.50;;;;;;;0.26;71.76;97692.43;106161;1276;24106;-76
2022/01/31 05:18:49;;;;;;;12.40;2.80;;;;;;;0.27;71.65;97692.28;106153;1276;137538;-76
2022/01/31 05:21:30;;;;;;;14.30;3.60;;;;;;;0.28;71.57;97687.75;106433;1277;22632;-76
2022/01/31 05:23:57;;;;;;;12.30;3.40;;;;;;;0.27;71.72;97681.93;106188;1276;137276;-76
2022/01/31 05:26:24;;;;;;;16.40;3.00;;;;;;;0.25;71.87;97675.98;106041;1277;25584;-76
2022/01/31 05:28:51;;;;;;;15.90;2.60;;;;;;;0.22;71.71;97672.73;106127;1276;22573;-76
2022/01/31 05:31:18;;;;;;;13.80;3.20;;;;;;;0.20;71.29;97661.02;105806;1276;137063;-76
2022/01/31 05:33:45;;;;;;;20.80;2.80;;;;;;;0.17;71.37;97659.05;106034;1276;22560;-76
2022/01/31 05:36:12;;;;;;;14.30;2.80;;;;;;;0.16;71.49;97658.69;106156;1276;137473;-77
2022/01/31 05:38:40;;;;;;;14.00;2.40;;;;;;;0.17;71.41;97658.04;106364;1277;29205;-76
2022/01/31 05:41:11;;;;;;;13.10;2.80;;;;;;;0.18;71.23;97653.63;106367;1277;137217;-76
2022/01/31 05:43:38;;;;;;;19.50;3.70;;;;;;;0.18;71.46;97647.86;106616;1276;22584;-78
2022/01/31 05:46:05;;;;;;;14.30;2.80;;;;;;;0.19;71.47;97645.48;106350;1277;24282;-78
2022/01/31 05:48:32;;;;;;;14.20;2.70;;;;;;;0.17;71.37;97637.27;106073;1276;137287;-76
2022/01/31 05:51:04;;;;;;;15.00;2.70;;;;;;;0.15;71.82;97626.10;106039;1276;22572;-76
2022/01/31 05:53:31;;;;;;;16.10;2.50;;;;;;;0.14;71.49;97622.40;106010;1276;137418;-76
2022/01/31 05:55:58;;;;;;;9.60;2.30;;;;;;;0.11;71.49;97616.90;106087;1276;25437;-76
2022/01/31 05:58:25;;;;;;;15.40;3.40;;;;;;;0.07;71.51;97609.15;106333;1276;25322;-76
2022/01/31 06:00:52;;;;;;;17.50;3.20;;;;;;;0.05;71.98;97604.32;106024;1276;137698;-76
2022/01/31 06:03:19;;;;;;;20.50;3.40;;;;;;;0.03;72.02;97606.48;105965;1276;22571;-76
2022/01/31 06:05:45;;;;;;;11.70;2.50;;;;;;;0.04;71.94;97606.74;106115;1276;137835;-76
2022/01/31 06:08:12;;;;;;;12.70;3.20;;;;;;;0.04;72.17;97601.38;106448;1276;25241;-76
2022/01/31 06:10:43;;;;;;;16.70;3.00;;;;;;;0.05;71.86;97595.86;106149;1277;24324;-76
2022/01/31 06:13:10;;;;;;;15.30;3.70;;;;;;;0.04;71.92;97594.96;106155;1277;137244;-76
2022/01/31 06:15:37;;;;;;;18.00;3.20;;;;;;;0.02;72.10;97597.70;106582;1277;25332;-76
2022/01/31 06:18:04;;;;;;;17.20;3.20;;;;;;;-0.01;72.36;97595.77;106118;1276;137339;-76
2022/01/31 06:20:31;;;;;;;18.30;3.40;;;;;;;-0.04;72.54;97592.70;106125;1274;22666;-76
2022/01/31 06:22:58;;;;;;;17.10;3.90;;;;;;;-0.06;72.34;97591.23;106013;1276;137656;-77
2022/01/31 06:25:26;;;;;;;16.10;4.00;;;;;;;-0.09;72.50;97587.98;106192;1276;25245;-77
2022/01/31 06:28:07;;;;;;;21.20;4.90;;;;;;;-0.10;72.56;97588.18;105795;1277;23116;-76
2022/01/31 06:30:36;;;;;;;21.30;4.60;;;;;;;-0.12;72.80;97589.90;106088;1277;137902;-77
2022/01/31 06:33:03;;;;;;;22.50;5.00;;;;;;;-0.12;72.69;97595.41;106545;1277;24214;-77
2022/01/31 06:35:44;;;;;;;22.00;4.50;;;;;;;-0.10;72.77;97590.86;106037;1277;137905;-77
2022/01/31 06:38:11;;;;;;;23.30;5.60;;;;;;;-0.09;72.62;97583.01;106532;1276;24435;-76
2022/01/31 06:40:39;;;;;;;22.00;5.40;;;;;;;-0.07;72.77;97584.05;106297;1276;22685;-75
2022/01/31 06:43:07;;;;;;;23.40;5.60;;;;;;;-0.06;72.96;97582.80;106238;1276;137838;-77
2022/01/31 06:45:48;;;;;;;27.20;5.00;;;;;;;-0.05;72.88;97577.92;105874;1276;22563;-77
2022/01/31 06:48:29;;;;;;;13.00;3.80;;;;;;;-0.05;72.97;97576.23;106045;1276;137413;-75
2022/01/31 06:51:10;;;;;;;22.10;5.20;;;;;;;-0.05;72.94;97580.88;106399;1277;22717;-75
2022/01/31 06:53:37;;;;;;;16.40;4.60;;;;;;;-0.04;73.47;97575.90;106116;1277;138340;-76
2022/01/31 06:56:04;;;;;;;25.10;5.40;;;;;;;-0.03;73.29;97576.93;106264;1277;25254;-76
2022/01/31 06:58:31;;;;;;;17.90;4.70;;;;;;;-0.03;73.44;97571.86;106192;1276;22634;-75
2022/01/31 07:01:13;;;;;;;20.20;5.80;;;;;;;-0.03;73.20;97571.01;106281;1277;137796;-75
2022/01/31 07:03:40;;;;;;;21.40;4.60;;;;;;;0.00;73.55;97568.27;106062;1276;22550;-75
2022/01/31 07:06:07;;;;;;;16.80;3.80;;;;;;;0.04;73.37;97561.08;106149;1276;137980;-75
2022/01/31 07:08:49;;;;;;;12.40;3.40;;;;;;;0.09;73.39;97563.23;106363;1276;25270;-76
2022/01/31 07:11:22;;;;;;;14.20;4.70;;;;;;;0.13;73.11;97562.38;106378;1277;137407;-75
2022/01/31 07:14:00;;;;;;;23.60;5.30;;;;;;;0.15;73.10;97559.59;106609;1277;24352;-75
2022/01/31 07:16:28;;;;;;;17.80;5.20;;;;;;;0.17;73.36;97560.13;106337;1277;22815;-76
2022/01/31 07:19:06;;;;;;;22.70;5.40;;;;;;;0.20;73.10;97554.14;106106;1276;137805;-75
2022/01/31 07:21:45;;;;;;;22.90;5.70;;;;;;;0.23;73.14;97549.70;105996;1276;26514;-75
2022/01/31 07:26:58;;;;;;;19.20;5.20;;;;;;;0.26;73.18;97545.46;106586;1276;22593;-75
2022/01/31 07:29:25;;;;;;;26.10;5.40;;;;;;;0.28;73.09;97546.20;106637;1276;138005;-76
2022/01/31 07:31:52;;;;;;;18.30;5.10;;;;;;;0.30;73.08;97545.02;106605;1277;25427;-76
2022/01/31 07:34:20;;;;;;;19.60;4.90;;;;;;;0.35;73.19;97535.59;106258;1277;23808;-76
2022/01/31 07:37:01;;;;;;;24.50;5.60;;;;;;;0.42;72.94;97534.12;106175;1277;137529;-76
2022/01/31 07:39:28;;;;;;;21.50;5.80;;;;;;;0.46;72.76;97530.70;106337;1276;22612;-76
2022/01/31 07:42:09;;;;;;;25.80;6.30;;;;;;;0.50;72.63;97522.96;106078;1276;138108;-76
2022/01/31 07:44:46;;;;;;;21.60;6.10;;;;;;;0.53;72.68;97526.27;106370;1276;24257;-76
2022/01/31 07:47:13;;;;;;;25.70;5.80;;;;;;;0.55;72.61;97527.34;106345;1276;137418;-76
2022/01/31 07:49:40;;;;;;;24.90;6.90;;;;;;;0.56;72.24;97516.71;106571;1276;25258;-76
2022/01/31 07:52:08;;;;;;;22.30;6.80;;;;;;;0.57;72.43;97517.13;106484;1277;22568;-76
2022/01/31 07:54:35;;;;;;;28.00;7.20;;;;;;;0.58;72.46;97516.30;106046;1277;137277;-76
2022/01/31 07:57:02;;;;;;;23.20;6.00;;;;;;;0.59;72.22;97508.34;106557;1277;22557;-76
2022/01/31 07:59:29;;;;;;;21.60;8.20;;;;;;;0.63;72.04;97506.05;106342;1276;137687;-76
2022/01/31 08:01:56;;;;;;;22.80;7.60;;;;;;;0.66;71.92;97506.30;106445;1276;24261;-76
2022/01/31 08:04:23;;;;;;;24.30;6.90;;;;;;;0.70;72.26;97503.45;106147;1276;24363;-76
2022/01/31 08:06:50;;;;;;;20.70;5.80;;;;;;;0.73;71.96;97498.42;106225;1276;137256;-76
2022/01/31 08:09:17;;;;;;;28.90;7.50;;;;;;;0.76;72.19;97490.72;106238;1276;25262;-76
2022/01/31 08:11:44;;;;;;;28.20;7.70;;;;;;;0.78;72.15;97489.27;106506;1277;137349;-77
2022/01/31 08:14:14;;;;;;;24.50;6.80;;;;;;;0.80;72.15;97491.33;106732;1277;22563;-76
2022/01/31 08:16:42;;;;;;;;;;;;;;;0.83;72.22;97491.33;106434;1277;23045;-79
2022/01/31 08:19:11;;;;;;;20.90;6.30;;;;;;;0.85;72.02;97490.67;107038;1277;123445;-75
2022/01/31 08:21:38;;;;;;;24.50;6.50;;;;;;;0.86;71.97;97487.83;106315;1276;22724;-75
2022/01/31 08:24:05;;;;;;;17.70;5.70;;;;;;;0.88;71.89;97483.54;106210;1276;137855;-77
2022/01/31 08:26:33;;;;;;;23.60;5.80;;;;;;;0.89;71.62;97478.92;106148;1276;24098;-76
2022/01/31 08:29:19;;;;;;;20.90;5.50;;;;;;;0.92;72.02;97474.70;106444;1276;137964;-76
2022/01/31 08:31:48;;;;;;;17.00;6.20;;;;;;;0.97;71.79;97473.60;106116;1277;22569;-76
2022/01/31 08:36:43;;;;;;;20.10;6.50;;;;;;;1.02;71.89;97459.29;106363;1277;137922;-77
2022/01/31 08:39:15;;;;;;;21.10;5.70;;;;;;;1.07;72.13;97464.88;106814;1277;24223;-76
2022/01/31 08:41:42;;;;;;;17.00;6.90;;;;;;;1.09;72.02;97457.66;106322;1276;137490;-76
2022/01/31 08:44:16;;;;;;;21.30;5.40;;;;;;;1.11;71.90;97456.20;106384;1276;22680;-77
2022/01/31 08:46:47;;;;;;;27.30;6.30;;;;;;;1.12;71.34;97450.80;106539;1276;22489;-76
2022/01/31 08:49:15;;;;;;;18.90;5.20;;;;;;;1.11;71.11;97453.23;106242;1276;137179;-77
2022/01/31 08:51:56;;;;;;;24.30;5.90;;;;;;;1.10;71.26;97442.55;106232;1277;22591;-77
2022/01/31 08:54:23;;;;;;;20.60;4.80;;;;;;;1.10;71.48;97435.75;106355;1277;137499;-76
2022/01/31 08:56:50;;;;;;;17.70;5.40;;;;;;;1.11;71.41;97435.79;106492;1277;22815;-77
2022/01/31 08:59:19;;;;;;;23.10;6.80;;;;;;;1.12;71.34;97437.52;106332;1277;137532;-77
2022/01/31 09:01:55;;;;;;;16.90;4.90;;;;;;;1.14;71.34;97435.13;106377;1276;22652;-77
2022/01/31 09:04:47;;;;;;;20.20;5.10;;;;;;;1.17;71.19;97432.44;106343;1276;25441;-76
2022/01/31 09:07:19;;;;;;;19.30;5.70;;;;;;;1.19;70.78;97427.43;105929;1276;137487;-76
2022/01/31 09:09:54;;;;;;;24.20;5.30;;;;;;;1.21;71.03;97423.89;106340;1276;24231;-76
2022/01/31 09:12:24;;;;;;;20.30;4.80;;;;;;;1.20;70.86;97420.02;106285;1276;137524;-76
2022/01/31 09:14:51;;;;;;;20.90;4.90;;;;;;;1.20;70.88;97413.73;106194;1277;23938;-76
2022/01/31 09:17:19;;;;;;;22.10;5.70;;;;;;;1.20;71.05;97410.90;106086;1277;137986;-76
2022/01/31 09:19:45;;;;;;;27.50;6.00;;;;;;;1.21;70.62;97406.48;106678;1277;22820;-76
2022/01/31 09:22:13;;;;;;;17.20;4.50;;;;;;;1.21;70.86;97410.72;106231;1276;23160;-76
2022/01/31 09:24:41;;;;;;;26.70;5.60;;;;;;;1.21;70.89;97414.84;106350;1277;137622;-76
2022/01/31 09:27:11;;;;;;;21.30;6.70;;;;;;;1.20;70.89;97415.60;106612;1276;22569;-76
2022/01/31 09:29:38;;;;;;;27.00;6.00;;;;;;;1.20;70.90;97409.94;106324;1276;137573;-76
2022/01/31 09:32:05;;;;;;;25.70;5.80;;;;;;;1.22;71.92;97405.44;106588;1276;22829;-76
2022/01/31 09:34:47;;;;;;;24.60;6.40;;;;;;;1.28;71.74;97402.77;106291;1277;23928;-76
2022/01/31 09:37:14;;;;;;;24.60;5.80;;;;;;;1.29;71.17;97399.27;106074;1277;137823;-76
2022/01/31 09:39:45;;;;;;;21.80;6.10;;;;;;;1.28;70.92;97393.70;106359;1277;22551;-76
2022/01/31 09:42:15;;;;;;;24.70;6.20;;;;;;;1.28;71.02;97388.38;106160;1276;137809;-76
2022/01/31 09:44:49;;;;;;;22.90;7.00;;;;;;;1.28;70.61;97377.62;106319;1277;24237;-76
2022/01/31 09:50:18;;;;;;;24.10;7.40;;;;;;;1.31;70.56;97371.95;106301;1276;25261;-77
2022/01/31 09:52:45;;;;;;;26.20;7.60;;;;;;;1.31;70.30;97366.63;105947;1277;23698;-75
2022/01/31 09:55:13;;;;;;;23.00;6.90;;;;;;;1.32;70.44;97360.43;106376;1277;137586;-75
2022/01/31 09:57:40;;;;;;;28.10;7.60;;;;;;;1.32;70.36;97353.62;106095;1277;22565;-76
2022/01/31 10:00:08;;;;;;;24.90;8.10;;;;;;;1.32;70.49;97344.13;106596;1277;137881;-76
2022/01/31 10:03:07;;;;;;;31.90;9.90;;;;;;;1.32;70.42;97341.08;106253;1276;22561;-75
2022/01/31 10:06:40;;;;;;;29.20;9.00;;;;;;;1.35;70.32;97338.30;102543;1313;558040;-76
2022/01/31 10:09:14;;;;;;;35.50;8.60;;;;;;;1.34;70.34;97334.59;104981;1292;23976;-76
2022/01/31 10:11:50;;;;;;;26.80;7.80;;;;;;;1.37;70.44;97331.40;104579;1292;136714;-76
2022/01/31 10:17:34;;;;;;;44.90;12.50;;;;;;;1.39;70.59;97320.34;104414;1291;136957;-76
2022/01/31 10:20:05;;;;;;;39.80;10.30;;;;;;;1.41;71.01;97323.45;105137;1291;182837;-77
2022/01/31 10:22:34;;;;;;;30.90;8.70;;;;;;;1.47;70.82;97321.80;104872;1290;22765;-78
2022/01/31 10:25:17;;;;;;;29.40;9.00;;;;;;;1.50;70.57;97314.23;104584;1291;137209;-76
2022/01/31 10:27:51;;;;;;;37.40;9.50;;;;;;;1.52;70.65;97312.95;105120;1289;25501;-76
2022/01/31 10:30:21;;;;;;;31.50;8.90;;;;;;;1.53;70.48;97306.55;104999;1289;137154;-76
2022/01/31 10:32:49;;;;;;;26.20;7.90;;;;;;;1.52;70.23;97302.39;104962;1289;23375;-76
2022/01/31 10:35:28;;;;;;;29.40;8.20;;;;;;;1.53;70.65;97300.48;104525;1292;137065;-76
2022/01/31 10:38:09;;;;;;;25.10;8.10;;;;;;;1.54;70.72;97299.23;105045;1289;30404;-76
2022/01/31 10:54:10;;;;;;;27.80;7.40;;;;;;;1.41;70.41;97274.60;105146;1289;137284;-76
2022/01/31 10:56:42;;;;;;;29.10;7.00;;;;;;;1.39;70.34;97276.88;105191;1289;24480;-76
2022/01/31 10:59:14;;;;;;;22.80;6.60;;;;;;;1.37;70.26;97275.77;105336;1289;137596;-76
2022/01/31 11:01:43;;;;;;;26.40;7.90;;;;;;;1.35;70.19;97272.27;105160;1289;22596;-76
2022/01/31 11:04:11;;;;;;;24.70;7.60;;;;;;;1.36;70.26;97268.35;105506;1289;25267;-76
2022/01/31 11:06:56;;;;;;;19.50;7.40;;;;;;;1.38;70.29;97264.30;104793;1290;136587;-76
2022/01/31 11:09:22;;;;;;;24.50;6.60;;;;;;;1.41;70.57;97260.65;104984;1289;22665;-76
2022/01/31 11:11:50;;;;;;;25.90;7.30;;;;;;;1.41;70.49;97261.23;105077;1289;137018;-76
2022/01/31 11:14:17;;;;;;;26.30;6.80;;;;;;;1.42;70.34;97261.84;105038;1289;24318;-76
2022/01/31 11:16:46;;;;;;;32.70;8.90;;;;;;;1.39;70.16;97260.59;104718;1291;24294;-77
2022/01/31 11:19:18;;;;;;;26.10;7.60;;;;;;;1.38;70.51;97257.33;104622;1292;136910;-76
2022/01/31 11:21:47;;;;;;;29.50;7.70;;;;;;;1.37;70.46;97252.67;105098;1287;24247;-76
2022/01/31 11:24:21;;;;;;;32.80;7.20;;;;;;;1.35;70.51;97254.49;105303;1286;136582;-76
2022/01/31 11:26:51;;;;;;;27.30;6.50;;;;;;;1.33;70.56;97248.35;105462;1286;22618;-76
2022/01/31 11:29:19;;;;;;;24.30;6.50;;;;;;;1.31;70.35;97245.20;105358;1285;137333;-76
2022/01/31 11:31:46;;;;;;;29.20;7.40;;;;;;;1.30;70.61;97242.77;105260;1286;25331;-77
2022/01/31 11:34:13;;;;;;;31.00;7.00;;;;;;;1.29;70.78;97243.47;105144;1286;22549;-76
2022/01/31 11:36:42;;;;;;;29.50;6.50;;;;;;;1.30;70.53;97237.85;104867;1287;137473;-76
2022/01/31 11:39:11;;;;;;;26.50;6.80;;;;;;;1.31;70.46;97235.33;105189;1286;31748;-76
2022/01/31 11:41:50;;;;;;;22.10;5.80;;;;;;;1.33;70.32;97232.92;105086;1286;138764;-76
2022/01/31 11:44:41;;;;;;;23.50;7.40;;;;;;;1.35;70.25;97233.24;105297;1286;22547;-76
2022/01/31 11:47:08;;;;;;;27.90;7.50;;;;;;;1.36;70.27;97232.26;104976;1289;137373;-76
2022/01/31 11:49:52;;;;;;;35.40;7.40;;;;;;;1.35;70.18;97227.84;105128;1288;22678;-76
2022/01/31 11:52:20;;;;;;;31.90;7.80;;;;;;;1.36;70.15;97221.64;105348;1285;24403;-76
2022/01/31 11:54:49;;;;;;;26.20;6.40;;;;;;;1.36;70.30;97215.73;105175;1288;137160;-76
2022/01/31 11:57:20;;;;;;;25.40;6.80;;;;;;;1.36;70.48;97224.57;106108;1278;22666;-78
2022/01/31 11:59:55;;;;;;;23.50;6.20;;;;;;;1.34;70.32;97222.10;106102;1277;136934;-77
2022/01/31 12:02:25;;;;;;;26.50;6.40;;;;;;;1.32;70.28;97222.41;106139;1279;22856;-76
2022/01/31 12:04:53;;;;;;;21.20;6.20;;;;;;;1.31;70.23;97219.15;106322;1278;25254;-75
2022/01/31 12:07:39;;;;;;;29.70;6.40;;;;;;;1.29;70.34;97216.21;106082;1277;137051;-76